Summer Miles/Road Warriors 2012


#1

Dedicated to all who are doing their preparation for this fall:D
Tempo Runs/Periodic fitness level checks:cool:

1 Sukerforth Anoy 20 M Middleboro MA 16:25 5:17:D
2 Reilly Jason 29 M Cumberland RI 16:44 5:23
3 Friedman David 17 M Marion MA 16:44 5:23 :smiley:
4 Anderson Scott 47 M New Bedford MA 16:48 5:25
5 Croteau Daniel 22 M Acushnet MA 17:07 5:31
6 Giardino Thomas 38 M Falmouth MA 17:16 5:34
7 Bolick Tim 17 M Marion MA 17:55 5:46:)
8 Hatch Taylor 15 M Marion MA 18:06 5:50 :slight_smile:

http://www.coolrunning.com/results/12/ma/Jun23_16thMa_set1.shtml


#2

1 TEDDY FARLEY M2 ACTON 21:03 :smiley:
2 KYLE SCHAEFFER M2 HUDSON 21:54
3 KATE WARWICK F2 BOXBOROUGH 23:40 :smiley:
4 STEPHEN WALSH M3 BOXBOROUGH 23:58

Nice Photo OP:cool:
http://www.coolrunning.com/results/12/ma/Jun16_Twenty_1_set1.shtml


#3

1 1/2 1 CHRIS MCGARRY 26 M 27 Canton MA 26:48.0 5:22
2 1/12 3 ANTONY TAYLOR 19 M 75 Arlington MA 27:26.7 5:30 :slight_smile:
3 2/2 1 CHRIS AHEARN 50 M 88 Framingham MA 28:57.0 5:48
4 2/12 3 MIKE MCDONALD 23 M 66 Canton MA 31:34.7 6:19
5 3/12 3 ALYSE ROCCO 22 F 48 South Boston MA 32:53.1 6:35 :slight_smile:

http://www.coolrunning.com/results/12/ma/Jun24_29thPO_set1.shtml


#4

I was beginning to wonder when this thread would show up. Thanks, kicks!


#5
  1. Sean Duncan Gardner GBTC 33:45:)
  2. Jonathan Miganowicz Templeton NMC 36:37
  3. Brad Fors Ashby NMC 36:48
  4. Steve Penney Gardner NMC 40:49
  5. Lee Munier Gardner NMC 41:29
  6. Charlie Salmond Fitchburg NMC 43:45
  7. Heidi Bixby-Handy Royalston NMC 44:37
    http://www.coolrunning.com/results/12/ma/Jun26_Tomand_set1.shtml

Who’s racing where on the 4th??:cool:


#6

1JaysonSylvan MansfieldM436 20:57 05:35CRR
2ChrisJordan TauntonM506 21:35 05:45UM-D:)
3DavidYumping BrocktonM292 23:01 06:08

http://www.coolrunning.com/results/12/ma/Jun27_Coloni_set1.shtml


#7

1 1889 Peter Asaro 1/73 M2029 23 M Gloucester MA 15:56 15:56 5:08 :smiley:
2 1701 Andrew Ryan 2/73 M2029 20 M Gloucester MA 15:59 15:59 5:09 :smiley:
3 2038 Matthew Curran 1/29 M5059 55 M Gloucester MA 16:59 17:00 5:28
4 1700 John Ryan 3/73 M2029 22 M Gloucester MA 17:03 17:03 5:30
5 1881 Dan Verrington 2/29 M5059 50 M Bradford MA 17:03 17:04 5:30
6 1993 Monica Adler 1/95 F2029 20 F Manchester MA 17:04 17:05 5:30 :smiley: :smiley:
7 1928 Sean Murphy 4/73 M2029 28 M Gloucester MA 17:13 17:13 5:33
8 1627 Noah Mondello 1/23 M1419 17 M Gloucester MA 17:16 17:16 5:34 :smiley:
9 1931 David Long 1/71 M3039 38 M Beverly MA 17:17 17:18 5:34
10 2030 Erich Oneil 5/73 M2029 20 M Beverly MA 17:33 17:33 5:39
11 1992 Chris Grange 6/73 M2029 28 M Amesbury MA 17:39 17:40 5:42
12 2021 David Adley 7/73 M2029 22 M Caste Village PA 17:43 17:43 5:43
13 1850 James Ryan 1/61 M4049 45 M Essex MA 17:43 17:43 5:43
14 1904 Richard Cotta 2/71 M3039 33 M Andover MA 17:50 17:51 5:45
15 1660 Andrew Pacholec 8/73 M2029 28 M Gloucester MA 18:04 18:06 5:50
16 1539 Connor Jones 2/23 M1419 19 M Peabody MA 18:09 18:10 5:51

http://www.coolrunning.com/results/12/ma/Jun28_StPete_set1.shtml


#8

1 3557 ZAC FLORENCE 19 M 1/19 M1729 16:53 5:27 1000 :smiley:
2 3176 SAM CONWAY 15 M 1/9 M0116 17:17 5:34 976 :smiley: Minnichaug
3 2829 JACK BRENER 22 M 2/19 M1729 WMDP 17:22 5:36 972
4 2414 ARTHUR BESSE 39 M 1/20 M3039 CMS 17:26* 5:37 968
5 3548 TODD COLLINS 33 M 2/20 M3039 17:28 5:38 967
6 2903 BOB LYNCH 49 M 1/25 M4049 EORC 17:35 5:40 960
7 3556 BRENDAN KANE 21 M 3/19 M1729 17:41 5:42 955
8 3561 COLIN MORSE 17 M 4/19 M1729 17:57 5:47 941 :slight_smile: Minnichaug
9 3540 MATT HEGARTY 22 M 5/19 M1729 17:58 5:47 940
10 2997 CHRIS GABRIELSON 24 M 6/19 M1729 17:58 5:47 939

http://www.coolrunning.com/results/12/ma/Jun28_Holyok_set1.shtml


#9

1 Thomas Mullen M 631 18:09 05:35:)
2 Adam Petti Raynham M 484 18:16 05:37 0 :smiley:
3 Jayson Sylvain Mansfield M 436 18:54 05:49 CRR
4 Rob Nee Bridgewater M 443 19:48 06:06
5 Mitchell Brady Raynham M 450 20:12 06:13
6 Dan Russell Bridgewater M 500 20:12 06:13
7 Dan Sugar Norton M 637 20:26 06:17
8 Ed Hall Bridgewater M 499 21:06 06:29
9 Norman Everett W. Bridgewater M 420 21:20 06:34 CRR
10 Ryan Putt Bridgewater M 442 22:28 06:55
14 Kevin Pacheco Raynham M 632 24:07 07:25 :slight_smile:

http://www.coolrunning.com/results/12/ma/Jul2_Dewpie_set1.shtml


#10

1 2414 ARTHUR BESSE 39 1/9 M1739 CMS 17:28 5:50
2 2472 JOE FOIS 37 2/9 M1739 GSH 18:28 6:09
3 1500 BILLY CARROLL 12 1/4 M0116 GSH 18:56 :smiley: 6:19
4 1988 NICK TOOKER 33 3/9 M1739 19:09 6:23
5 3185 MICHAEL SHEA 27 4/9 M1739 19:29 6:30
6 3126 WILL STEGER 15 2/4 M0116 19:39 6:33
7 3186 ALLY MORIN 16 1/6 F0116 19:43 6:35:D Westfield Jr to be
8 1172 JULIE CARROLL 14 2/6 F0116 GSH 20:37 6:53 Soutwick-Tolland incoming frosh??:smiley:
9 3077 BRIAN RUCKI 21 5/9 M1739 21:12 7:04

http://www.coolrunning.com/results/12/ma/Jul2_STANLE_set1.shtml


#11

1 1/3 MOPEN 17:29 17:27 5:37 Michael Giardina 20 M 6817 Lowell MA :smiley:
2 2/3 MOPEN 18:12 18:11 5:52 Chris Kivior 17 M 6888 Milford MA :smiley:
3 1/3 FOPEN 18:23 18:20 5:55 Rebecca White 21 F 5855 Natick MA :smiley:
4 3/3 MOPEN 18:27 18:22 5:55 Elliott Kelly 16 M 6859 Attleboro MA :smiley:
5 1/299 M0119 18:41 18:40 6:01 Michael Vaz 18 M 5003 Dartmouth MA
6 2/299 M0119 18:44 18:42 6:02 Jason O’Connell 19 M 6513 Middleboro MA
7 1/342 M3039 18:53 18:52 6:05 David Curry 39 M 6871
8 3/299 M0119 19:04 18:56 6:06 Cameron Debrusk 18 M 5358 Contoocook NH
9 4/299 M0119 19:08 19:04 6:08 Matthew Danosky 16 M 4908 North Attleboro MA :slight_smile:
10 2/342 M3039 19:25 19:15 6:12 Adam Rundell 37 M 5811 Brookfield MA

Youngn’s:cool:
14 5/299 M0119 20:00 19:54 6:24 Andrew Allen 15 M 6642 Norfolk MA
24 10/299 M0119 20:45 20:33 6:37 Ben Adams 15 M 4920 Upton MA
34 11/299 M0119 21:02 20:58 6:45 Noah Strout 11 M 6741 Barrington NH
48 15/299 M0119 21:32 21:26 6:54 Andrew Callahan 14 M 4008 East Taunton MA

Frosh to be??:slight_smile:
53 1/265 F0119 21:42 21:39 6:58 Sarah Cavanaugh 13 F 4918 Auburn MA
66 2/265 F0119 22:00 21:57 7:04 Elizabeth Anusauskas 13 F 4406 Auburn MA
67 3/265 F0119 22:00 21:57 7:04 Andrea Bolduc 13 F 6678 Auburn MA

http://www.coolrunning.com/results/12/ma/Jul3_Harvar_set1.shtml


#12

1 1/168 M1929 9:10 4:35 Ruben Sanca 25 M 7 Dracut MA :smiley:
2 2/168 M1929 9:12 4:36 Jeffrey Veiga 21 M 485 Lowell MA :smiley:
3 1/124 M3039 9:23 4:42 Justin Lutz 32 M 1963 Framingham MA
4 3/168 M1929 9:31 4:46 Ethan Brown 27 M 37 Lowell MA
5 1/101 M5059 9:40 4:50 Tom Andrews 50 M 1492 Chelmsford MA
6 4/168 M1929 9:43 4:52 Christopher Estrella 21 M 149 Lowell MA
7 5/168 M1929 9:45 4:53 Ben Pare 20 M 9945 Methuen MA
8 2/124 M3039 9:50 4:55 Benjamin Ndaya 36 M 162 Chelmsford MA
9 6/168 M1929 9:53 4:57 Brian Donovan 20 M 1834 Dracut MA
10 1/238 M4049 9:54 4:57 Jim St Pierre 41 M 9913 Dracut MA
11 7/168 M1929 9:54 4:57 Zachary Lankow 23 M 9953 Saugus MA
12 8/168 M1929 9:56 4:58 David Merges 26 M 9922 Medford MA
13 9/168 M1929 10:00 5:00 Dan Roark 22 M 761 Dracut MA
14 10/168 M1929 10:01 5:01 Joe Ryan 26 M 9921 Medford MA
15 11/168 M1929 10:02 5:01 Jon Healy 29 M 9978 Chelmsford MA
16 12/168 M1929 10:03 5:02 Christian Kusch 19 M 19771
17 3/124 M3039 10:04 5:02 Mike Quintal 34 M 587 N. Andover MA
18 13/168 M1929 10:04 5:02 Jason Dedonato 26 M 9943 Nashua NH
19 14/168 M1929 10:09 5:05 Chris Healy 29 M 9977 Chelmsford MA
20 15/168 M1929 10:09 5:05 Jose Ortiz 23 M 1882 Methuen MA
21 1/60 M1718 10:11 5:06 Cory Thomas 17 M 334 Tewksbury MA :smiley:
22 16/168 M1929 10:13 5:07 Neal Darmody 22 M 255 Gaithersurg MD
23 2/101 M5059 10:17 5:09 Doug Martyn 52 M 1694 N. Andover MA
24 4/124 M3039 10:18 5:09 Matt Theodoros 30 M 1881 North Chelmsford MA
25 2/60 M1718 10:20 5:10 Aaron Maurais 18 M 9693 Hopedale MA
26 3/101 M5059 10:23 5:12 Mike Cooney 50 M 1007 Chelmsford MA
27 1/68 M1516 10:25 5:13 Paul Maurais 16 M 9694 Hopedale MA :smiley:
28 17/168 M1929 10:27 5:14 David Brown 21 M 1437 Chelmsford MA

102 1/67 F1718 12:12 6:06 Emily Ruggiero 17 F 273 Westford MA :smiley:
140 1/71 F1516 12:46 6:23 Brianna Sullivan 15 F 1460 Holden MA
149 2/67 F1718 12:55 6:28 Elizabeth McGurk 17 F 1512 New Ipswich MA

http://www.coolrunning.com/results/12/ma/Jul4_JohnCa_set1.shtml


#13

1 BRYAN GLASS 460 1/59 M3039 Springfield IL 16:13 5:13
2 SAM MILLER 236 1/22 M2029 Needham MA 16:27 5:18
3 HARRY STAITS 402 2/59 M3039 Needham MA 16:50 5:25
4 JEFFREY OKERMAN 444 1/27 M1419 Needham MA 17:28 5:38 :slight_smile:
5 CHRISTOPHER LEITZ 194 3/59 M3039 Watertown MA 17:29 5:38
13 SAM THOMAS 348 2/27 M1419 Needham MA 18:33 5:59
15 MATT TOWNSEND 351 3/27 M1419 Chappaqua NY 18:52 6:05
17 HARRY HALL 401 4/27 M1419 Needham MA 18:57 6:06

53 KATINA RUSSELL 298 1/24 F1419 Needham MA 21:06 6:48 :slight_smile:
54 HANNAH ALPERT 5 2/24 F1419 Needham MA 21:07 6:48
75 KATIE CRONIN 77 1/14 F1013 Waban MA 22:13 7:10 :smiley:
http://www.coolrunning.com/results/12/ma/Jul4_Charle_set1.shtml


#14

1 2414 Alex Gomes 1/17 M2029 23 M Peabody MA 21:32 21:32 5:23
2 2197 Adam Kingsbury 2/17 M2029 23 M Marblehead MA 21:37 21:38 5:25
3 2178 Peter Hale 1/9 M1519 17 M Swampscott MA 21:44 21:45 5:27 :smiley:
4 2115 Jason Barnes 1/61 M4049 49 M Salem MA 21:51 21:52 5:28
5 2451 Martin Tighe 1/34 M5059 54 M Providence RI 22:42 22:43 5:41 GO Coach:D
6 2477 Rich Cooper 1/54 M3039 36 M Marblehead MA 22:55 22:56 5:44
http://www.coolrunning.com/results/12/ma/Jul4_Firecr_1_set1.shtml

1 ryan hayes 36 16:59 5:29 woburn MA
2 CHRISTOPHER SMITH 180 17:15 5:34 WOBURN MA
3 Mike DiMauro 91 17:26 5:38 Woburn MA
4 E J Hrynowski 100 17:46 5:44 Arlington MA
http://www.coolrunning.com/results/12/ma/Jul4_Feeney_set1.shtml

1 1/12 Jason Porter 84 42 M Bedford NH 22:13 5:34
2 1/11 Jacob Ellis 65 18 M Brattleboro VT 22:14 5:34 :smiley:
3 1/14 Robert Lind 32 26 M Brattleboro VT 22:39 5:40
http://www.coolrunning.com/results/12/vt/Jul4_BillPo_set1.shtml


#15

1 Brian Fuller WMDP 23 1 M 19-29 15:28.0 4:59/M:D :smiley:
2 Jesse Regnier WMDP 25 2 M 19-29 16:12.0 5:14/M:D
3 Troy French WMDP 23 3 M 19-29 16:28.0 5:19/M
4 Mark Hixson HTC 47 1 M 40-49 16:29.0 5:19/M
5 Orlando Cordero GSH 21 4 M 19-29 16:34.0 5:21/M
6 Ivan Cordero GSH 25 5 M 19-29 16:36.0 5:21/M
7 Tim Shea 18 1 M 15-18 16:46.0 5:25/M
8 David Estabrook GSH 26 6 M 19-29 16:49.0 5:25/M
9 Ben Lasky 23 7 M 19-29 16:53.0 5:27/M
10 Carlos Rivera GSH 38 1 M 30-39 16:54.0 5:27/M
11 Tim Mahoney CMS 32 2 M 30-39 16:55.0 5:27/M
12 Joe Hegarty 27 8 M 19-29 16:56.0 5:28/M
13 Joe Czupryna WMDP 26 9 M 19-29 17:08.0 5:32/M
20 Carolyn Stocker GSH 19 1 F 19-29 19:17.0 6:13/M:D
25 Bill Carroll GSH 12 1 M 3-14 19:46.0 6:23/M:)
50 Nora Garrity 18 1 F 15-18 21:31.0 6:56/M
61 Julie Carroll GSH 14 1 F 3-14 22:25.0 7:14/M:)
http://www.coolrunning.com/results/12/ma/Jul4_35thGS_set1.shtml
WMDP = Western Mass Distance Project

1 1/13 M2029 SEAN HANLON 21 M 181 GEORGETOWN MA 17:00 5:29 :smiley:
2 1/23 M3039 DANIEL PRINCIC 32 M 186 READING MA 17:12 5:33
3 2/13 M2029 JOHN MITTON 22 M 146 NORTH READING MA 17:31 5:39
4 1/10 M1719 TIM CONTOIS 17 M 169 DANVERS MA 18:13 5:53 :slight_smile:
5 3/13 M2029 MARK HUDSON 25 M 280 LYNNFIELD MA 18:14 5:53
6 2/10 M1719 TOM O’SHEA 17 M 83 LYNNFIELD MA 18:28 5:58
7 3/10 M1719 JEFF COOK 19 M 151 LYNNFIELD MA 18:34 6:00
8 1/34 M4049 MIKE GIROUARD 42 M 164 READING MA 18:43 6:03
9 1/7 M1416 CHASE DAVIDSON 15 M 26 LYNNNFIELD MA 19:02 6:09
10 2/23 M3039 SEAN AKELL 31 M 5 WAKEFIELD MA 19:07 6:10
21 1/13 F1416 OLIVIA LAMARCHE 14 F 200 LYNNFIELD MA 21:17 6:52

Lynnfield Ladies:D
31 2/13 F1416 ABBY NORWOOD 16 F 79 LYNNFIELD MA 21:48 7:02
47 3/13 F1416 TIA PATTERSON 15 F 143 LYNNFIELD MA 22:29 7:16
53 1/5 F1113 ELIZABETH REED 13 F 92 LYNNFIELD MA 22:59 7:25
54 4/13 F1416 MARIE NORWOOD 14 F 80 LYNNFIELD MA 23:01 7:26
59 5/13 F1416 TYLER JUDD 14 F 263 LYNNEFIELD MA 23:33 7:36
63 2/5 F1113 ELISABETH SHAIEVITZ 12 F 177 LYNNFIELD MA 23:39 7:38
70 6/13 F1416 EMILY SCOLLARD 15 F 100 LYNNFIELD MA 23:53 7:43
http://www.coolrunning.com/cgi-bin/res_load/recent_results.cgi


#16

G.R.B.A. 18th Annual 5K Road Race & Walk
Goose Rocks Beach - Kennebunkport, ME, July 4, 2012

1 878 Decker, Ben M16 Yarmouth, ME 15:58.9:D :smiley:
2 578 Fulford, Jonathan M23 Kennebunk, ME 16:17.6
3 877 Decker, Byrne M45 Yarmouth, ME 16:33.3
4 792 Chelate, Aaron M30 Saco, ME 16:35.5
5 485 Ward, Grady M17 Essex, VT 17:02.9 :smiley:
6 443 Sullivan, Kevin M41 Andover, MA 17:10.4
7 799 Leonardi, Abbey W18 Kennebunkport, ME 17:18.0 :smiley: :smiley:
8 857 Bathgate, James M45 Pittsfored, NY 17:46.1
9 1 Szymanski, Zachary M25 Dracut, MA 17:57.8
10 833 Snyder, Andrew M19 Powell, ME 17:59.9
11 3 Warwick, Kate W22 Boxborough, MA 18:05.2

http://www.coolrunning.com/results/12/me/Jul4_GRBA18_set1.shtml


#17

4 Gagnon, Brian 86 United States 1:48.22:)

http://www.flotrack.org/coverage/248655-2012-Moncton-Hub-City-Classic-NTL-4/video/646010-M-800-UGA-grad-Evans-takes-it-2012-Moncton-NTL


#18

No Falmouth 5miler// TF. the comeback continuuuueeesss
1 26:32:D 5:32 1 17-29 1 M 186 Teddy Farley Acton,MA
2 27:10 5:40 1 30-39 2 M 304 Thomas Giardino Falmouth,MA
3 27:27 5:43 1 40-49 3 M 248 Rob Hult Harvard,MA
4 27:43 5:46 2 30-39 4 M 146 Jason Barr Burlington,MA
5 27:51 5:48 1 50-59 5 M 164 Ken Gartner Falmouth,MA Gartner-Martin
6 28:39 5:58 3 30-39 6 M 215 Geoff Nickerson N. Falmouth,MA

8 29:43 6:11 1 17-29 1 F 227 Lauren Philbrook Hopkinton,MA
10 30:18 6:19 2 17-29 2 F 214 Ella Martin :smiley: Woodshale,MA Gartner-Martin
11 30:42 6:24 1 30-39 3 F 154 Laura Hutchinson Holyoke,MA Marn-Hutchinson

http://www.coolrunning.com/results/12/ma/Jul7_PaulEW_set1.shtml

Holyoke 5k Lotsa Youngn’s
1 75 Stone, Aaron M29 5K Race-Walk 16:49
2 739 Hodgins, Cody M18 Holyoke, MA 17:10 :smiley: 1
3 995 Conway, Samuel\ M15 Wilbraham, MA 17:23 2
4 604 Andre, Michael M16 Feeding Hills, MA 17:48 3
5 146 Guillermo, Godrean M16 Holyoke, MA 17:53
6 771 Landry, R.J. M17 Holyoke, MA 18:26
7 690 Domnarski, Henry M14:) Palmer, MA 18:35
8 994 Douglass, Luke M16 Wilbraham, MA 19:13
9 752 Judge, Aaron M32 South Hadley, MA 19:46 1
10 622 Bernard, Matthew M17 Wilbraham, MA 20:01
11 930 Tardy, Tyler M15 Holyoke, MA 20:07
12 72 Wells, Russell M16 Wilbraham, MA 20:10

28 835 Metayer, Katie W17 Wilbraham, MA 22:00 1
29 793 Lellman, Charlotte W18 Florence, MA 22:00 2

http://www.coolrunning.com/results/12/ma/Jul7_1stAnn_set1.shtml

Rufus T FireFly 5k
1 184 Brian Keefe M 23 Medford MA 17:12 5:33 1/32 M18-39 1/100 M
2 61 Reilly Friedman M 15 Atlanta GA 17:21 5:36 1/8 M13-17 2/100 M
3 73 James Hamilton M 18:) Andover MA 17:27 5:38 2/32 M18-39 3/100 M
4 83 Shawn Keenan M 34 Wallingford CT 18:05 5:50 3/32 M18-39 4/100 M
5 217 Ryan Rezendes M 21 Fall River MA 18:48 6:04 4/32 M18-39 5/100 M
6 246 Mike Peabody M 23 Londonderry NH 19:04 6:10 5/32 M18-39 6/100 M
7 249 Ben Finnigan M 16 Dover NH 19:27 6:17 2/8 M13-17 7/100 M
8 173 Meagan Boucher F 21 Manchester NH 19:30 6:18 1/76 F18-39 1/147 F
9 204 Molly Sunderlin F 33 Easton PA 19:33 6:19 2/76 F18-39 2/147 F
10 178 Vladi Highland M 19 Waterville Vly NH 19:35 6:19 6/32 M18-39 8/100 M
11 36 Max Dimuccio M 10:eek: Seekonk MA 19:48 6:24 1/15 M12&UND 9/100 M
http://www.coolrunning.com/results/12/nh/Jul7_FireFl_set1.shtml


#19

1 Walton, Russell Concord Carlisle Class of '13 4:38.30
2 Rich, Brian Concord Carlisle Class of '13 4:53.17
3 Rolfe, Zach Parker Charter Class of '16 4:53.86:D :smiley:
4 Regan, Daniel Westford Class of '13 4:55.49
5 Bradford, Will Concord Carlisle Class of '12 5:56.29
6 Rindlisbacher, Christo Concord Carlisle Class of ’ 15 6:46.96

http://www.coolrunning.com/results/12/ma/Jul7_Martin_set1.shtml


#20